createdAt,value
2018-05-09T00:01:42.539Z,97552.12
2018-05-09T00:04:10.171Z,97558.18
2018-05-09T00:06:37.779Z,97551.56
2018-05-09T00:09:05.947Z,97561.63
2018-05-09T00:11:33.538Z,97557.38
2018-05-09T00:14:03.463Z,97552.77
2018-05-09T00:16:31.044Z,97556.20
2018-05-09T00:18:58.611Z,97549.53
2018-05-09T00:21:26.343Z,97549.98
2018-05-09T00:23:53.985Z,97552.88
2018-05-09T00:26:21.573Z,97547.43
2018-05-09T00:28:49.197Z,97546.91
2018-05-09T00:31:16.825Z,97546.06
2018-05-09T00:33:44.393Z,97540.86
2018-05-09T00:36:12.016Z,97538.73
2018-05-09T00:38:39.604Z,97541.75
2018-05-09T00:41:07.252Z,97542.38
2018-05-09T00:43:34.881Z,97543.77
2018-05-09T00:46:02.460Z,97543.45
2018-05-09T00:48:30.049Z,97552.41
2018-05-09T00:50:57.755Z,97546.61
2018-05-09T00:53:25.355Z,97549.85
2018-05-09T00:55:52.928Z,97549.92
2018-05-09T00:58:20.604Z,97545.20
2018-05-09T01:00:48.395Z,97547.77
2018-05-09T01:03:16.028Z,97546.09
2018-05-09T01:05:43.729Z,97539.05
2018-05-09T01:08:11.303Z,97548.88
2018-05-09T01:10:38.944Z,97538.53
2018-05-09T01:13:06.649Z,97544.22
2018-05-09T01:15:34.311Z,97553.16
2018-05-09T01:18:01.960Z,97557.34
2018-05-09T01:20:29.632Z,97563.53
2018-05-09T01:22:57.200Z,97553.78
2018-05-09T01:25:24.757Z,97556.66
2018-05-09T01:27:52.538Z,97558.02
2018-05-09T01:30:20.107Z,97561.20
2018-05-09T01:32:47.687Z,97562.82
2018-05-09T01:35:15.380Z,97569.87
2018-05-09T01:37:42.940Z,97573.31
2018-05-09T01:40:10.555Z,97581.08
2018-05-09T01:42:38.209Z,97581.83
2018-05-09T01:45:06.515Z,97580.41
2018-05-09T01:47:34.147Z,97582.24
2018-05-09T01:50:01.885Z,97569.66
2018-05-09T01:52:29.453Z,97570.49
2018-05-09T01:54:57.091Z,97571.95
2018-05-09T01:57:24.836Z,97571.06
2018-05-09T01:59:52.477Z,97563.50
2018-05-09T02:02:20.299Z,97570.17
2018-05-09T02:04:47.980Z,97563.17
2018-05-09T02:07:15.603Z,97568.81
2018-05-09T02:09:43.176Z,97568.75
2018-05-09T02:12:10.852Z,97575.05
2018-05-09T02:14:38.434Z,97566.25
2018-05-09T02:17:06.019Z,97562.77
2018-05-09T02:19:33.652Z,97564.49
2018-05-09T02:22:01.243Z,97560.25
2018-05-09T02:24:28.871Z,97567.30
2018-05-09T02:26:56.548Z,97572.31
2018-05-09T02:29:24.188Z,97570.73
2018-05-09T02:31:51.781Z,97567.08
2018-05-09T02:34:19.568Z,97566.47
2018-05-09T02:36:47.143Z,97568.38
2018-05-09T02:39:14.776Z,97566.84
2018-05-09T02:41:42.384Z,97568.02
2018-05-09T02:44:10.030Z,97568.73
2018-05-09T02:46:37.640Z,97567.14
2018-05-09T02:49:05.269Z,97565.54
2018-05-09T02:51:33.456Z,97565.30
2018-05-09T02:54:01.104Z,97558.77
2018-05-09T02:56:28.812Z,97563.11
2018-05-09T02:58:56.452Z,97557.09
2018-05-09T03:01:24.041Z,97562.47
2018-05-09T03:03:51.655Z,97561.38
2018-05-09T03:06:19.289Z,97564.37
2018-05-09T03:08:46.869Z,97559.63
2018-05-09T03:11:14.548Z,97561.09
2018-05-09T03:13:42.110Z,97565.41
2018-05-09T03:16:09.740Z,97562.34
2018-05-09T03:18:37.431Z,97562.56
2018-05-09T03:21:05.003Z,97566.64
2018-05-09T03:23:32.639Z,97568.28
2018-05-09T03:26:00.310Z,97566.99
2018-05-09T03:28:27.872Z,97573.88
2018-05-09T03:30:55.428Z,97571.55
2018-05-09T03:33:23.096Z,97574.88
2018-05-09T03:35:50.700Z,97581.69
2018-05-09T03:38:18.326Z,97581.69
2018-05-09T03:40:46.051Z,97588.02
2018-05-09T03:43:14.248Z,97593.20
2018-05-09T03:45:41.828Z,97603.00
2018-05-09T03:48:09.579Z,97598.75
2018-05-09T03:50:37.143Z,97608.00
2018-05-09T03:53:04.820Z,97600.67
2018-05-09T03:55:33.363Z,97605.13
2018-05-09T03:58:00.989Z,97609.61
2018-05-09T04:00:28.638Z,97616.35
2018-05-09T04:03:08.276Z,97612.42
2018-05-09T04:05:47.835Z,97618.78
2018-05-09T04:08:27.241Z,97622.53
2018-05-09T04:10:54.827Z,97621.22
2018-05-09T04:13:22.414Z,97617.33
2018-05-09T04:15:50.110Z,97618.08
2018-05-09T04:18:17.688Z,97619.14
2018-05-09T04:20:45.423Z,97617.90
2018-05-09T04:23:13.084Z,97618.16
2018-05-09T04:25:40.652Z,97615.82
2018-05-09T04:28:08.239Z,97615.87
2018-05-09T04:30:36.009Z,97610.14
2018-05-09T04:33:03.677Z,97616.03
2018-05-09T04:35:31.257Z,97617.90
2018-05-09T04:37:58.964Z,97613.70
2018-05-09T04:40:26.606Z,97618.39
2018-05-09T04:42:54.196Z,97619.40
2018-05-09T04:45:21.827Z,97617.48
2018-05-09T04:47:49.406Z,97616.80
2018-05-09T04:50:16.988Z,97608.81
2018-05-09T04:52:44.691Z,97610.41
2018-05-09T04:55:12.344Z,97606.02
2018-05-09T04:57:39.977Z,97614.67
2018-05-09T05:00:07.668Z,97606.30
2018-05-09T05:02:35.304Z,97613.78
2018-05-09T05:05:02.899Z,97616.59
2018-05-09T05:07:31.212Z,97621.05
2018-05-09T05:09:58.796Z,97620.61
2018-05-09T05:12:26.383Z,97622.61
2018-05-09T05:14:54.065Z,97628.67
2018-05-09T05:17:21.702Z,97623.31
2018-05-09T05:19:49.372Z,97631.55
2018-05-09T05:22:17.005Z,97632.20
2018-05-09T05:24:44.591Z,97628.84
2018-05-09T05:27:12.175Z,97628.37
2018-05-09T05:29:39.881Z,97626.15
2018-05-09T05:32:07.541Z,97628.84
2018-05-09T05:34:35.125Z,97627.20
2018-05-09T05:37:02.765Z,97630.31
2018-05-09T05:39:30.403Z,97630.44
2018-05-09T05:41:58.017Z,97637.66
2018-05-09T05:44:26.163Z,97640.45
2018-05-09T05:46:53.805Z,97645.98
2018-05-09T05:49:21.423Z,97635.23
2018-05-09T05:51:49.252Z,97636.68
2018-05-09T05:54:16.874Z,97632.53
2018-05-09T05:56:44.456Z,97636.64
2018-05-09T05:59:12.117Z,97636.47
2018-05-09T06:01:39.764Z,97639.31
2018-05-09T06:04:07.337Z,97645.08
2018-05-09T06:06:34.969Z,97646.97
2018-05-09T06:09:02.535Z,97647.93
2018-05-09T06:11:30.180Z,97652.84
2018-05-09T06:13:57.828Z,97646.09
2018-05-09T06:16:25.444Z,97644.95
2018-05-09T06:18:53.093Z,97643.34
2018-05-09T06:21:20.721Z,97644.74
2018-05-09T06:23:48.294Z,97651.82
2018-05-09T06:26:15.965Z,97649.70
2018-05-09T06:28:43.686Z,97658.39
2018-05-09T06:31:11.342Z,97654.59
2018-05-09T06:33:38.937Z,97653.04
2018-05-09T06:36:06.599Z,97654.34
2018-05-09T06:38:34.191Z,97664.53
2018-05-09T06:41:01.761Z,97659.05
2018-05-09T06:46:39.260Z,97669.31
2018-05-09T06:49:07.055Z,97667.83
2018-05-09T06:51:34.632Z,97666.70
2018-05-09T06:54:02.209Z,97661.34
2018-05-09T06:56:29.952Z,97668.10
2018-05-09T06:58:57.585Z,97677.99
2018-05-09T07:01:25.173Z,97671.19
2018-05-09T07:03:53.299Z,97670.98
2018-05-09T07:06:20.996Z,97675.56
2018-05-09T07:08:48.501Z,97673.43
2018-05-09T07:11:16.164Z,97676.52
2018-05-09T07:13:43.753Z,97677.22
2018-05-09T07:16:11.392Z,97674.29
2018-05-09T07:18:39.747Z,97670.09
2018-05-09T07:21:08.087Z,97672.10
2018-05-09T07:23:35.691Z,97673.62
2018-05-09T07:26:03.423Z,97679.03
2018-05-09T07:28:31.096Z,97677.90
2018-05-09T07:30:59.417Z,97672.30
2018-05-09T07:33:27.421Z,97674.84
2018-05-09T07:35:55.559Z,97672.41
2018-05-09T07:38:23.169Z,97670.17
2018-05-09T07:40:50.803Z,97682.27
2018-05-09T07:43:18.375Z,97673.41
2018-05-09T07:45:46.428Z,97673.41
2018-05-09T07:48:14.759Z,97671.20
2018-05-09T07:50:42.340Z,97675.20
2018-05-09T07:53:09.975Z,97667.02
2018-05-09T07:55:37.767Z,97669.03
2018-05-09T07:58:05.424Z,97672.44
2018-05-09T08:00:33.009Z,97679.56
2018-05-09T08:03:00.719Z,97672.44
2018-05-09T08:05:28.367Z,97666.39
2018-05-09T08:07:55.937Z,97670.13
2018-05-09T08:10:23.612Z,97671.56
2018-05-09T08:12:51.259Z,97672.88
2018-05-09T08:15:18.781Z,97668.42
2018-05-09T08:17:46.407Z,97668.20
2018-05-09T08:20:13.976Z,97669.77
2018-05-09T08:22:41.573Z,97666.52
2018-05-09T08:25:09.280Z,97660.02
2018-05-09T08:27:37.622Z,97666.00
2018-05-09T08:30:05.880Z,97660.28
2018-05-09T08:32:33.588Z,97668.75
2018-05-09T08:35:01.165Z,97668.28
2018-05-09T08:37:28.744Z,97667.73
2018-05-09T08:39:56.377Z,97664.06
2018-05-09T08:42:23.963Z,97656.74
2018-05-09T08:44:51.544Z,97659.09
2018-05-09T08:47:19.220Z,97656.98
2018-05-09T08:49:46.804Z,97666.38
2018-05-09T08:52:14.379Z,97658.31
2018-05-09T08:54:42.081Z,97664.22
2018-05-09T08:57:09.759Z,97661.78
2018-05-09T08:59:37.335Z,97656.14
2018-05-09T09:02:04.996Z,97659.59
2018-05-09T09:04:32.584Z,97655.03
2018-05-09T09:07:00.178Z,97653.46
2018-05-09T09:09:27.787Z,97649.23
2018-05-09T09:11:55.350Z,97658.05
2018-05-09T09:14:22.943Z,97659.63
2018-05-09T09:16:50.563Z,97654.88
2018-05-09T09:19:18.136Z,97658.95
2018-05-09T09:21:45.707Z,97658.59
2018-05-09T09:24:13.324Z,97650.94
2018-05-09T09:26:40.903Z,97654.34
2018-05-09T09:29:08.583Z,97653.97
2018-05-09T09:31:36.259Z,97655.66
2018-05-09T09:34:03.852Z,97652.13
2018-05-09T09:36:31.473Z,97647.46
2018-05-09T09:38:59.179Z,97642.77
2018-05-09T09:41:26.836Z,97644.56
2018-05-09T09:43:54.361Z,97639.50
2018-05-09T09:46:21.971Z,97643.98
2018-05-09T09:48:49.607Z,97638.16
2018-05-09T09:51:17.168Z,97633.84
2018-05-09T09:53:44.887Z,97635.33
2018-05-09T09:56:12.761Z,97625.16
2018-05-09T09:58:40.408Z,97632.73
2018-05-09T10:01:08.092Z,97625.25
2018-05-09T10:03:35.734Z,97628.63
2018-05-09T10:06:03.333Z,97627.69
2018-05-09T10:08:31.004Z,97625.20
2018-05-09T10:10:58.607Z,97625.70
2018-05-09T10:13:26.800Z,97624.70
2018-05-09T10:15:54.503Z,97625.30
2018-05-09T10:18:22.124Z,97623.88
2018-05-09T10:20:49.800Z,97619.95
2018-05-09T10:23:17.555Z,97616.59
2018-05-09T10:25:45.165Z,97610.35
2018-05-09T10:28:12.756Z,97610.91
2018-05-09T10:30:40.408Z,97606.81
2018-05-09T10:33:08.034Z,97605.11
2018-05-09T10:35:35.619Z,97598.16
2018-05-09T10:38:03.331Z,97597.38
2018-05-09T10:40:30.985Z,97592.34
2018-05-09T10:42:58.617Z,97589.97
2018-05-09T10:45:26.253Z,97590.17
2018-05-09T10:47:53.844Z,97585.37
2018-05-09T10:50:21.479Z,97589.10
2018-05-09T10:52:49.267Z,97588.30
2018-05-09T10:55:16.847Z,97585.16
2018-05-09T10:57:44.418Z,97578.55
2018-05-09T11:00:13.317Z,97578.91
2018-05-09T11:02:41.367Z,97578.48
2018-05-09T11:05:09.005Z,97564.31
2018-05-09T11:07:36.615Z,97564.22
2018-05-09T11:10:04.266Z,97567.61
2018-05-09T11:12:31.841Z,97557.98
2018-05-09T11:14:59.480Z,97560.87
2018-05-09T11:17:27.085Z,97548.92
2018-05-09T11:19:54.724Z,97552.90
2018-05-09T11:22:22.408Z,97554.92
2018-05-09T11:24:49.984Z,97544.39
2018-05-09T11:27:17.632Z,97548.58
2018-05-09T11:29:45.244Z,97555.97
2018-05-09T11:32:12.830Z,97542.78
2018-05-09T11:34:40.433Z,97543.44
2018-05-09T11:37:08.140Z,97536.27
2018-05-09T11:39:35.806Z,97530.18
2018-05-09T11:42:03.393Z,97531.23
2018-05-09T11:44:31.094Z,97529.09
2018-05-09T11:46:58.680Z,97529.98
2018-05-09T11:49:26.326Z,97520.70
2018-05-09T11:51:53.953Z,97520.52
2018-05-09T11:54:21.549Z,97513.63
2018-05-09T11:56:49.197Z,97513.52
2018-05-09T11:59:16.869Z,97517.71
2018-05-09T12:01:44.503Z,97516.75
2018-05-09T12:04:12.155Z,97516.70
2018-05-09T12:06:39.899Z,97519.21
2018-05-09T12:09:07.537Z,97518.13
2018-05-09T12:11:35.109Z,97520.17
2018-05-09T12:14:03.376Z,97516.00
2018-05-09T12:16:30.959Z,97504.52
2018-05-09T12:18:58.540Z,97501.64
2018-05-09T12:21:26.172Z,97503.30
2018-05-09T12:23:53.756Z,97505.19
2018-05-09T12:26:21.398Z,97497.86
2018-05-09T12:28:49.348Z,97498.31
2018-05-09T12:31:16.932Z,97497.75
2018-05-09T12:33:44.573Z,97490.45
2018-05-09T12:36:12.295Z,97500.84
2018-05-09T12:38:39.972Z,97489.78
2018-05-09T12:41:07.563Z,97486.92
2018-05-09T12:43:35.182Z,97481.36
2018-05-09T12:46:02.753Z,97485.63
2018-05-09T12:48:30.462Z,97490.66
2018-05-09T12:50:58.109Z,97484.44
2018-05-09T12:53:25.741Z,97484.44
2018-05-09T12:55:53.397Z,97485.72
2018-05-09T12:58:21.141Z,97481.80
2018-05-09T13:00:48.750Z,97480.95
2018-05-09T13:03:16.360Z,97486.09
2018-05-09T13:05:44.057Z,97475.73
2018-05-09T13:08:11.692Z,97474.25
2018-05-09T13:10:39.276Z,97473.27
2018-05-09T13:13:06.898Z,97480.50
2018-05-09T13:15:34.495Z,97469.53
2018-05-09T13:18:02.065Z,97480.31
2018-05-09T13:20:29.760Z,97471.83
2018-05-09T13:22:57.888Z,97471.77
2018-05-09T13:25:25.519Z,97477.29
2018-05-09T13:27:53.174Z,97475.28
2018-05-09T13:30:20.756Z,97480.04
2018-05-09T13:32:48.336Z,97475.34
2018-05-09T13:35:16.134Z,97474.78
2018-05-09T13:37:43.714Z,97471.33
2018-05-09T13:40:11.358Z,97473.05
2018-05-09T13:42:38.968Z,97473.14
2018-05-09T13:45:06.617Z,97476.55
2018-05-09T13:47:34.289Z,97464.40
2018-05-09T13:50:01.914Z,97474.22
2018-05-09T13:52:29.507Z,97471.95
2018-05-09T13:54:57.072Z,97469.73
2018-05-09T13:57:24.689Z,97475.56
2018-05-09T13:59:52.334Z,97474.27
2018-05-09T14:02:19.976Z,97474.45
2018-05-09T14:04:47.691Z,97477.50
2018-05-09T14:07:15.265Z,97486.34
2018-05-09T14:09:42.897Z,97480.19
2018-05-09T14:12:10.528Z,97482.38
2018-05-09T14:14:38.115Z,97479.06
2018-05-09T14:17:05.692Z,97477.05
2018-05-09T14:19:33.311Z,97484.05
2018-05-09T14:22:00.947Z,97483.47
2018-05-09T14:24:28.522Z,97490.41
2018-05-09T14:26:56.248Z,97482.87
2018-05-09T14:29:23.845Z,97485.16
2018-05-09T14:31:51.463Z,97483.24
2018-05-09T14:34:19.278Z,97488.20
2018-05-09T14:36:46.960Z,97488.56
2018-05-09T14:39:14.613Z,97492.42
2018-05-09T14:41:42.231Z,97492.13
2018-05-09T14:44:09.816Z,97494.41
2018-05-09T14:46:37.470Z,97494.03
2018-05-09T14:49:05.169Z,97498.62
2018-05-09T14:51:32.800Z,97502.83
2018-05-09T14:54:00.401Z,97499.70
2018-05-09T14:56:28.033Z,97498.05
2018-05-09T14:58:55.669Z,97496.11
2018-05-09T15:01:23.248Z,97499.51
2018-05-09T15:03:50.952Z,97500.62
2018-05-09T15:06:18.601Z,97503.56
2018-05-09T15:08:46.252Z,97497.64
2018-05-09T15:11:14.032Z,97495.96
2018-05-09T15:13:41.574Z,97494.55
2018-05-09T15:16:09.225Z,97496.97
2018-05-09T15:18:36.858Z,97497.03
2018-05-09T15:21:04.488Z,97489.02
2018-05-09T15:23:32.090Z,97492.45
2018-05-09T15:25:59.737Z,97492.22
2018-05-09T15:28:27.314Z,97492.00
2018-05-09T15:30:54.917Z,97487.31
2018-05-09T15:33:22.720Z,97484.94
2018-05-09T15:35:50.395Z,97485.47
2018-05-09T15:38:18.029Z,97489.39
2018-05-09T15:40:45.734Z,97483.50
2018-05-09T15:43:13.334Z,97485.21
2018-05-09T15:45:40.927Z,97484.81
2018-05-09T15:48:08.576Z,97488.54
2018-05-09T15:50:36.161Z,97486.56
2018-05-09T15:53:03.764Z,97495.86
2018-05-09T15:55:31.508Z,97490.40
2018-05-09T15:57:59.076Z,97490.08
2018-05-09T16:00:26.713Z,97492.84
2018-05-09T16:02:54.424Z,97490.39
2018-05-09T16:05:22.073Z,97491.27
2018-05-09T16:07:49.733Z,97488.56
2018-05-09T16:10:17.536Z,97487.91
2018-05-09T16:12:45.180Z,97490.12
2018-05-09T16:15:12.882Z,97493.75
2018-05-09T16:17:40.621Z,97498.61
2018-05-09T16:20:08.289Z,97501.49
2018-05-09T16:22:36.689Z,97499.78
2018-05-09T16:25:05.211Z,97505.91
2018-05-09T16:27:32.800Z,97506.30
2018-05-09T16:30:00.400Z,97506.95
2018-05-09T16:32:28.070Z,97514.80
2018-05-09T16:35:27.589Z,97519.66
2018-05-09T16:37:55.404Z,97529.91
2018-05-09T16:40:22.985Z,97536.52
2018-05-09T16:42:50.632Z,97541.38
2018-05-09T16:45:18.450Z,97541.88
2018-05-09T16:47:46.020Z,97544.77
2018-05-09T16:50:13.656Z,97542.34
2018-05-09T16:52:41.285Z,97545.69
2018-05-09T16:55:08.929Z,97547.55
2018-05-09T16:57:36.518Z,97556.39
2018-05-09T17:00:04.264Z,97566.09
2018-05-09T17:02:31.920Z,97569.30
2018-05-09T17:04:59.515Z,97578.57
2018-05-09T17:07:27.285Z,97574.06
2018-05-09T17:09:54.931Z,97581.90
2018-05-09T17:12:22.546Z,97573.98
2018-05-09T17:14:50.278Z,97582.20
2018-05-09T17:17:17.912Z,97579.60
2018-05-09T17:19:45.576Z,97570.52
2018-05-09T17:22:28.020Z,97566.80
2018-05-09T17:24:55.668Z,97565.03
2018-05-09T17:27:23.326Z,97571.73
2018-05-09T17:29:50.957Z,97574.36
2018-05-09T17:32:18.568Z,97578.59
2018-05-09T17:34:46.230Z,97574.73
2018-05-09T17:37:13.865Z,97577.20
2018-05-09T17:39:42.236Z,97585.05
2018-05-09T17:42:09.817Z,97585.31
2018-05-09T17:44:37.497Z,97588.55
2018-05-09T17:47:05.104Z,97596.89
2018-05-09T17:49:32.679Z,97589.76
2018-05-09T17:52:00.378Z,97597.68
2018-05-09T17:54:28.014Z,97593.28
2018-05-09T17:56:55.651Z,97594.50
2018-05-09T17:59:23.267Z,97602.45
2018-05-09T18:01:50.900Z,97607.48
2018-05-09T18:04:18.487Z,97615.30
2018-05-09T18:06:46.985Z,97618.30
2018-05-09T18:09:14.615Z,97621.33
2018-05-09T18:11:42.339Z,97623.66
2018-05-09T18:14:10.060Z,97627.03
2018-05-09T18:16:37.650Z,97628.83
2018-05-09T18:19:05.291Z,97635.80
2018-05-09T18:21:32.931Z,97639.13
2018-05-09T18:24:00.645Z,97644.73
2018-05-09T18:26:28.255Z,97640.84
2018-05-09T18:28:56.673Z,97639.47
2018-05-09T18:31:24.313Z,97635.48
2018-05-09T18:33:51.907Z,97634.73
2018-05-09T18:36:19.627Z,97638.86
2018-05-09T18:38:47.281Z,97635.94
2018-05-09T18:41:14.856Z,97642.91
2018-05-09T18:43:42.666Z,97648.64
2018-05-09T18:46:10.321Z,97649.05
2018-05-09T18:48:39.196Z,97657.51
2018-05-09T18:51:06.896Z,97666.39
2018-05-09T18:53:34.726Z,97668.06
2018-05-09T18:56:02.475Z,97665.75
2018-05-09T18:58:30.204Z,97665.98
2018-05-09T19:00:57.871Z,97659.66
2018-05-09T19:03:25.460Z,97665.09
2018-05-09T19:05:53.300Z,97664.80
2018-05-09T19:08:21.028Z,97663.14
2018-05-09T19:10:48.698Z,97663.95
2018-05-09T19:13:16.454Z,97663.78
2018-05-09T19:15:44.128Z,97659.91
2018-05-09T19:18:11.720Z,97664.39
2018-05-09T19:20:39.344Z,97671.64
2018-05-09T19:23:07.060Z,97674.75
2018-05-09T19:25:34.660Z,97678.50
2018-05-09T19:28:02.297Z,97681.05
2018-05-09T19:30:29.892Z,97679.12
2018-05-09T19:32:57.465Z,97684.53
2018-05-09T19:35:25.153Z,97685.64
2018-05-09T19:37:52.741Z,97675.47
2018-05-09T19:40:20.337Z,97681.48
2018-05-09T19:42:48.164Z,97679.16
2018-05-09T19:45:15.731Z,97682.02
2018-05-09T19:47:43.403Z,97687.78
2018-05-09T19:50:10.998Z,97685.59
2018-05-09T19:52:38.643Z,97689.92
2018-05-09T19:55:06.241Z,97689.88
2018-05-09T19:57:33.901Z,97689.11
2018-05-09T20:00:01.553Z,97697.00
2018-05-09T20:02:29.160Z,97701.98
2018-05-09T20:04:56.964Z,97702.31
2018-05-09T20:07:24.556Z,97707.51
2018-05-09T20:09:52.224Z,97710.31
2018-05-09T20:12:19.956Z,97707.31
2018-05-09T20:14:47.977Z,97711.87
2018-05-09T20:17:15.571Z,97712.41
2018-05-09T20:19:43.210Z,97711.72
2018-05-09T20:22:11.751Z,97705.92
2018-05-09T20:24:39.405Z,97710.69
2018-05-09T20:27:07.047Z,97707.81
2018-05-09T20:29:34.629Z,97707.45
2018-05-09T20:32:14.256Z,97709.68
2018-05-09T20:34:41.841Z,97708.25
2018-05-09T20:37:09.440Z,97707.52
2018-05-09T20:39:37.063Z,97699.94
2018-05-09T20:42:04.706Z,97704.00
2018-05-09T20:44:32.269Z,97703.50
2018-05-09T20:46:59.961Z,97709.11
2018-05-09T20:49:27.606Z,97704.45
2018-05-09T20:51:55.368Z,97700.92
2018-05-09T20:54:23.094Z,97697.92
2018-05-09T20:56:50.691Z,97697.92
2018-05-09T20:59:18.459Z,97694.53
2018-05-09T21:01:49.088Z,97696.44
2018-05-09T21:04:16.703Z,97695.19
2018-05-09T21:06:44.285Z,97690.44
2018-05-09T21:09:12.885Z,97693.11
2018-05-09T21:11:41.261Z,97698.23
2018-05-09T21:14:08.869Z,97688.41
2018-05-09T21:16:36.678Z,97698.09
2018-05-09T21:19:04.371Z,97701.23
2018-05-09T21:21:31.931Z,97698.63
2018-05-09T21:23:59.573Z,97709.42
2018-05-09T21:26:27.168Z,97700.19
2018-05-09T21:28:54.789Z,97705.02
2018-05-09T21:31:22.424Z,97706.76
2018-05-09T21:33:50.013Z,97717.02
2018-05-09T21:36:17.598Z,97714.58
2018-05-09T21:38:45.308Z,97711.17
2018-05-09T21:41:12.957Z,97711.17
2018-05-09T21:43:40.596Z,97710.55
2018-05-09T21:46:08.333Z,97709.48
2018-05-09T21:48:35.966Z,97708.42
2018-05-09T21:51:03.555Z,97706.11
2018-05-09T21:53:31.187Z,97711.55
2018-05-09T21:55:58.772Z,97704.25
2018-05-09T21:58:26.444Z,97703.34
2018-05-09T22:00:54.142Z,97706.22
2018-05-09T22:03:21.729Z,97706.37
2018-05-09T22:05:49.711Z,97712.36
2018-05-09T22:08:17.339Z,97713.19
2018-05-09T22:10:44.962Z,97711.98
2018-05-09T22:13:12.552Z,97705.06
2018-05-09T22:15:40.379Z,97703.70
2018-05-09T22:18:07.967Z,97701.12
2018-05-09T22:20:35.535Z,97701.80
2018-05-09T22:23:03.247Z,97702.75
2018-05-09T22:25:30.821Z,97702.84
2018-05-09T22:27:58.404Z,97712.06
2018-05-09T22:30:26.111Z,97702.27
2018-05-09T22:32:53.678Z,97706.40
2018-05-09T22:35:21.300Z,97700.29
2018-05-09T22:37:48.968Z,97700.11
2018-05-09T22:40:16.571Z,97704.85
2018-05-09T22:42:44.205Z,97705.45
2018-05-09T22:45:11.828Z,97706.40
2018-05-09T22:47:39.408Z,97700.64
2018-05-09T22:50:06.971Z,97704.65
2018-05-09T22:52:34.686Z,97712.07
2018-05-09T22:55:02.418Z,97705.28
2018-05-09T22:57:30.601Z,97708.52
2018-05-09T22:59:58.278Z,97703.27
2018-05-09T23:02:26.431Z,97707.69
2018-05-09T23:04:54.031Z,97713.87
2018-05-09T23:07:21.660Z,97710.75
2018-05-09T23:09:49.244Z,97710.87
2018-05-09T23:12:16.823Z,97712.53
2018-05-09T23:14:44.548Z,97706.98
2018-05-09T23:17:12.199Z,97704.84
2018-05-09T23:19:39.747Z,97701.58
2018-05-09T23:22:07.516Z,97699.91
2018-05-09T23:24:35.116Z,97693.38
2018-05-09T23:27:02.683Z,97697.59
2018-05-09T23:29:30.405Z,97698.91
2018-05-09T23:31:58.044Z,97695.43
2018-05-09T23:34:25.724Z,97696.88
2018-05-09T23:36:53.380Z,97694.21
2018-05-09T23:39:20.985Z,97692.67
2018-05-09T23:41:48.616Z,97684.15
2018-05-09T23:44:16.422Z,97690.97
2018-05-09T23:46:44.049Z,97700.00
2018-05-09T23:49:11.704Z,97692.22
2018-05-09T23:51:39.339Z,97691.39
2018-05-09T23:54:06.914Z,97690.56
2018-05-09T23:56:34.560Z,97693.95
2018-05-09T23:59:02.176Z,97692.88
